Weingarten, Missouri
Current Conditions -  °F | °C
As of 2:35 PM on Friday 28 Nov 2014 (Local Time) from KSAR Reporting Station
Clear Clear  
Wind Chill: 38°   Ceiling: Unl
Heat Index: 44°   Visibility: 10mi
Dew Point: 33°   Wind: 14mph
Humidity: 64%   Direction: 170°S
Pressure: 30.04"   Gusts: 22mph
Location:  37.9762°N, 90.0499°W
Report Text: KSAR 282035Z AUTO 17012G19KT 10SM CLR 07/00 A3004 RMK AO2 T00680004
Loading
Personal Weather Stations






























Interactive Weather Map New forecast layout! Learn more

10-Day Weather Forecast

Advertisements
Track Severe Weather on mobile